sensor_id;sensor_type;location;lat;lon;timestamp;temperature;humidity
11647;DHT22;5880;52.342;9.662;2023-12-29T00:00:07;13.40;61.40
11647;DHT22;5880;52.342;9.662;2023-12-29T00:02:34;13.40;61.40
11647;DHT22;5880;52.342;9.662;2023-12-29T00:04:59;13.40;61.50
11647;DHT22;5880;52.342;9.662;2023-12-29T00:07:25;13.40;61.30
11647;DHT22;5880;52.342;9.662;2023-12-29T00:09:51;13.50;61.70
11647;DHT22;5880;52.342;9.662;2023-12-29T00:12:16;13.40;61.20
11647;DHT22;5880;52.342;9.662;2023-12-29T00:14:42;13.50;61.40
11647;DHT22;5880;52.342;9.662;2023-12-29T00:17:09;13.40;61.40
11647;DHT22;5880;52.342;9.662;2023-12-29T00:19:34;13.40;61.50
11647;DHT22;5880;52.342;9.662;2023-12-29T00:22:00;13.50;62.00
11647;DHT22;5880;52.342;9.662;2023-12-29T00:24:28;13.50;61.60
11647;DHT22;5880;52.342;9.662;2023-12-29T00:26:57;13.50;61.70
11647;DHT22;5880;52.342;9.662;2023-12-29T00:29:23;13.50;61.80
11647;DHT22;5880;52.342;9.662;2023-12-29T00:31:49;13.50;61.80
11647;DHT22;5880;52.342;9.662;2023-12-29T00:34:14;13.50;61.60
11647;DHT22;5880;52.342;9.662;2023-12-29T00:36:40;13.50;61.50
11647;DHT22;5880;52.342;9.662;2023-12-29T00:39:06;13.50;61.10
11647;DHT22;5880;52.342;9.662;2023-12-29T00:41:32;13.50;61.70
11647;DHT22;5880;52.342;9.662;2023-12-29T00:43:57;13.50;61.60
11647;DHT22;5880;52.342;9.662;2023-12-29T00:46:23;13.50;61.50
11647;DHT22;5880;52.342;9.662;2023-12-29T00:48:49;13.50;61.20
11647;DHT22;5880;52.342;9.662;2023-12-29T00:51:14;13.50;61.00
11647;DHT22;5880;52.342;9.662;2023-12-29T00:53:40;13.50;61.40
11647;DHT22;5880;52.342;9.662;2023-12-29T00:56:10;13.50;61.50
11647;DHT22;5880;52.342;9.662;2023-12-29T00:58:37;13.50;61.60
11647;DHT22;5880;52.342;9.662;2023-12-29T01:01:03;13.50;61.70
11647;DHT22;5880;52.342;9.662;2023-12-29T01:03:28;13.50;62.00
11647;DHT22;5880;52.342;9.662;2023-12-29T01:05:54;13.50;62.20
11647;DHT22;5880;52.342;9.662;2023-12-29T01:08:19;13.50;61.80
11647;DHT22;5880;52.342;9.662;2023-12-29T01:10:45;13.50;62.10
11647;DHT22;5880;52.342;9.662;2023-12-29T01:13:11;13.50;62.00
11647;DHT22;5880;52.342;9.662;2023-12-29T01:15:37;13.50;62.20
11647;DHT22;5880;52.342;9.662;2023-12-29T01:18:02;13.50;62.30
11647;DHT22;5880;52.342;9.662;2023-12-29T01:20:28;13.50;62.30
11647;DHT22;5880;52.342;9.662;2023-12-29T01:22:54;13.50;62.20
11647;DHT22;5880;52.342;9.662;2023-12-29T01:25:19;13.50;62.20
11647;DHT22;5880;52.342;9.662;2023-12-29T01:27:45;13.50;62.00
11647;DHT22;5880;52.342;9.662;2023-12-29T01:30:11;13.50;62.40
11647;DHT22;5880;52.342;9.662;2023-12-29T01:32:37;13.50;62.10
11647;DHT22;5880;52.342;9.662;2023-12-29T01:35:03;13.50;62.10
11647;DHT22;5880;52.342;9.662;2023-12-29T01:37:29;13.50;62.00
11647;DHT22;5880;52.342;9.662;2023-12-29T01:39:54;13.50;62.40
11647;DHT22;5880;52.342;9.662;2023-12-29T01:42:20;13.50;62.30
11647;DHT22;5880;52.342;9.662;2023-12-29T01:44:47;13.50;62.60
11647;DHT22;5880;52.342;9.662;2023-12-29T01:47:17;13.50;62.60
11647;DHT22;5880;52.342;9.662;2023-12-29T01:49:45;13.50;62.80
11647;DHT22;5880;52.342;9.662;2023-12-29T01:52:11;13.50;62.60
11647;DHT22;5880;52.342;9.662;2023-12-29T01:54:38;13.50;62.60
11647;DHT22;5880;52.342;9.662;2023-12-29T01:57:06;13.50;62.30
11647;DHT22;5880;52.342;9.662;2023-12-29T01:59:34;13.50;62.90
11647;DHT22;5880;52.342;9.662;2023-12-29T02:02:01;13.50;62.70
11647;DHT22;5880;52.342;9.662;2023-12-29T02:04:27;13.40;62.80
11647;DHT22;5880;52.342;9.662;2023-12-29T02:06:54;13.50;62.90
11647;DHT22;5880;52.342;9.662;2023-12-29T02:09:21;13.40;62.90
11647;DHT22;5880;52.342;9.662;2023-12-29T02:11:48;13.50;63.30
11647;DHT22;5880;52.342;9.662;2023-12-29T02:14:15;13.50;63.30
11647;DHT22;5880;52.342;9.662;2023-12-29T02:17:04;13.50;63.20
11647;DHT22;5880;52.342;9.662;2023-12-29T02:19:43;13.50;62.60
11647;DHT22;5880;52.342;9.662;2023-12-29T02:22:11;13.50;62.50
11647;DHT22;5880;52.342;9.662;2023-12-29T02:24:37;13.50;62.90
11647;DHT22;5880;52.342;9.662;2023-12-29T02:27:36;13.50;63.20
11647;DHT22;5880;52.342;9.662;2023-12-29T02:30:09;13.50;62.40
11647;DHT22;5880;52.342;9.662;2023-12-29T02:32:42;13.50;62.80
11647;DHT22;5880;52.342;9.662;2023-12-29T02:35:14;13.50;62.90
11647;DHT22;5880;52.342;9.662;2023-12-29T02:37:54;13.50;62.20
11647;DHT22;5880;52.342;9.662;2023-12-29T02:40:20;14.10;63.30
11647;DHT22;5880;52.342;9.662;2023-12-29T02:42:47;13.50;63.30
11647;DHT22;5880;52.342;9.662;2023-12-29T02:45:15;13.50;63.00
11647;DHT22;5880;52.342;9.662;2023-12-29T02:47:41;13.50;63.20
11647;DHT22;5880;52.342;9.662;2023-12-29T02:50:11;13.50;62.90
11647;DHT22;5880;52.342;9.662;2023-12-29T02:52:37;13.50;63.30
11647;DHT22;5880;52.342;9.662;2023-12-29T02:55:03;13.50;63.40
11647;DHT22;5880;52.342;9.662;2023-12-29T02:57:29;13.50;63.30
11647;DHT22;5880;52.342;9.662;2023-12-29T02:59:55;13.40;63.00
11647;DHT22;5880;52.342;9.662;2023-12-29T03:02:22;13.50;63.40
11647;DHT22;5880;52.342;9.662;2023-12-29T03:04:48;13.40;63.50
11647;DHT22;5880;52.342;9.662;2023-12-29T03:07:13;13.50;63.50
11647;DHT22;5880;52.342;9.662;2023-12-29T03:09:39;13.50;63.70
11647;DHT22;5880;52.342;9.662;2023-12-29T03:12:06;13.50;63.60
11647;DHT22;5880;52.342;9.662;2023-12-29T03:14:32;13.40;63.50
11647;DHT22;5880;52.342;9.662;2023-12-29T03:16:58;13.50;63.70
11647;DHT22;5880;52.342;9.662;2023-12-29T03:19:24;13.40;63.60
11647;DHT22;5880;52.342;9.662;2023-12-29T03:21:50;13.50;63.70
11647;DHT22;5880;52.342;9.662;2023-12-29T03:24:16;13.50;63.80
11647;DHT22;5880;52.342;9.662;2023-12-29T03:26:42;13.50;63.80
11647;DHT22;5880;52.342;9.662;2023-12-29T03:29:08;13.50;63.60
11647;DHT22;5880;52.342;9.662;2023-12-29T03:31:33;13.50;63.70
11647;DHT22;5880;52.342;9.662;2023-12-29T03:33:59;13.50;63.60
11647;DHT22;5880;52.342;9.662;2023-12-29T03:36:25;13.50;63.70
11647;DHT22;5880;52.342;9.662;2023-12-29T03:38:50;13.50;63.40
11647;DHT22;5880;52.342;9.662;2023-12-29T03:41:16;13.60;63.50
11647;DHT22;5880;52.342;9.662;2023-12-29T03:43:41;13.60;63.70
11647;DHT22;5880;52.342;9.662;2023-12-29T03:46:21;13.60;63.40
11647;DHT22;5880;52.342;9.662;2023-12-29T03:48:47;13.60;62.20
11647;DHT22;5880;52.342;9.662;2023-12-29T03:51:14;13.60;63.30
11647;DHT22;5880;52.342;9.662;2023-12-29T03:53:41;13.60;63.30
11647;DHT22;5880;52.342;9.662;2023-12-29T03:56:07;13.60;63.20
11647;DHT22;5880;52.342;9.662;2023-12-29T03:58:35;13.60;63.20
11647;DHT22;5880;52.342;9.662;2023-12-29T04:01:01;13.50;63.10
11647;DHT22;5880;52.342;9.662;2023-12-29T04:03:27;13.60;63.40
11647;DHT22;5880;52.342;9.662;2023-12-29T04:05:53;13.50;63.40
11647;DHT22;5880;52.342;9.662;2023-12-29T04:08:19;13.50;63.50
11647;DHT22;5880;52.342;9.662;2023-12-29T04:10:44;13.40;63.60
11647;DHT22;5880;52.342;9.662;2023-12-29T04:13:10;13.40;64.40
11647;DHT22;5880;52.342;9.662;2023-12-29T04:15:36;13.40;63.70
11647;DHT22;5880;52.342;9.662;2023-12-29T04:18:01;13.40;63.70
11647;DHT22;5880;52.342;9.662;2023-12-29T04:20:27;13.30;63.70
11647;DHT22;5880;52.342;9.662;2023-12-29T04:22:53;13.30;64.00
11647;DHT22;5880;52.342;9.662;2023-12-29T04:25:20;13.30;64.00
11647;DHT22;5880;52.342;9.662;2023-12-29T04:27:46;13.20;63.70
11647;DHT22;5880;52.342;9.662;2023-12-29T04:30:11;13.20;63.70
11647;DHT22;5880;52.342;9.662;2023-12-29T04:32:37;13.20;63.80
11647;DHT22;5880;52.342;9.662;2023-12-29T04:35:03;13.20;63.90
11647;DHT22;5880;52.342;9.662;2023-12-29T04:37:29;13.20;64.00
11647;DHT22;5880;52.342;9.662;2023-12-29T04:39:55;13.20;64.10
11647;DHT22;5880;52.342;9.662;2023-12-29T04:42:20;13.20;64.00
11647;DHT22;5880;52.342;9.662;2023-12-29T04:44:46;13.20;64.30
11647;DHT22;5880;52.342;9.662;2023-12-29T04:47:12;13.20;64.10
11647;DHT22;5880;52.342;9.662;2023-12-29T04:49:38;13.20;64.10
11647;DHT22;5880;52.342;9.662;2023-12-29T04:52:04;13.20;64.10
11647;DHT22;5880;52.342;9.662;2023-12-29T04:54:30;13.20;64.20
11647;DHT22;5880;52.342;9.662;2023-12-29T04:56:55;13.20;64.20
11647;DHT22;5880;52.342;9.662;2023-12-29T04:59:21;13.20;64.10
11647;DHT22;5880;52.342;9.662;2023-12-29T05:01:47;13.20;64.40
11647;DHT22;5880;52.342;9.662;2023-12-29T05:04:12;13.20;64.40
11647;DHT22;5880;52.342;9.662;2023-12-29T05:06:40;13.10;64.50
11647;DHT22;5880;52.342;9.662;2023-12-29T05:09:06;13.10;65.20
11647;DHT22;5880;52.342;9.662;2023-12-29T05:11:31;13.10;64.80
11647;DHT22;5880;52.342;9.662;2023-12-29T05:13:57;13.10;65.00
11647;DHT22;5880;52.342;9.662;2023-12-29T05:16:23;13.00;65.00
11647;DHT22;5880;52.342;9.662;2023-12-29T05:18:49;13.00;65.20
11647;DHT22;5880;52.342;9.662;2023-12-29T05:21:18;13.00;65.30
11647;DHT22;5880;52.342;9.662;2023-12-29T05:23:44;12.90;65.40
11647;DHT22;5880;52.342;9.662;2023-12-29T05:26:11;12.90;65.50
11647;DHT22;5880;52.342;9.662;2023-12-29T05:28:37;12.90;65.70
11647;DHT22;5880;52.342;9.662;2023-12-29T05:31:03;12.90;65.80
11647;DHT22;5880;52.342;9.662;2023-12-29T05:33:32;12.90;65.90
11647;DHT22;5880;52.342;9.662;2023-12-29T05:35:59;12.90;66.00
11647;DHT22;5880;52.342;9.662;2023-12-29T05:38:33;12.90;66.10
11647;DHT22;5880;52.342;9.662;2023-12-29T05:40:58;12.90;66.20
11647;DHT22;5880;52.342;9.662;2023-12-29T05:43:26;12.90;66.20
11647;DHT22;5880;52.342;9.662;2023-12-29T05:45:52;12.90;66.20
11647;DHT22;5880;52.342;9.662;2023-12-29T05:48:17;13.00;66.30
11647;DHT22;5880;52.342;9.662;2023-12-29T05:50:43;13.00;66.40
11647;DHT22;5880;52.342;9.662;2023-12-29T05:53:09;12.90;66.40
11647;DHT22;5880;52.342;9.662;2023-12-29T05:55:34;12.90;66.40
11647;DHT22;5880;52.342;9.662;2023-12-29T05:58:00;12.90;66.50
11647;DHT22;5880;52.342;9.662;2023-12-29T06:00:25;12.90;66.50
11647;DHT22;5880;52.342;9.662;2023-12-29T06:02:51;13.00;66.60
11647;DHT22;5880;52.342;9.662;2023-12-29T06:05:17;12.90;66.60
11647;DHT22;5880;52.342;9.662;2023-12-29T06:07:42;12.90;66.60
11647;DHT22;5880;52.342;9.662;2023-12-29T06:10:08;13.00;66.60
11647;DHT22;5880;52.342;9.662;2023-12-29T06:12:34;13.00;66.50
11647;DHT22;5880;52.342;9.662;2023-12-29T06:15:00;13.00;66.60
11647;DHT22;5880;52.342;9.662;2023-12-29T06:17:26;13.00;66.50
11647;DHT22;5880;52.342;9.662;2023-12-29T06:19:52;13.00;66.60
11647;DHT22;5880;52.342;9.662;2023-12-29T06:22:18;13.00;66.50
11647;DHT22;5880;52.342;9.662;2023-12-29T06:24:44;13.10;66.60
11647;DHT22;5880;52.342;9.662;2023-12-29T06:27:11;13.10;66.60
11647;DHT22;5880;52.342;9.662;2023-12-29T06:29:37;13.10;66.70
11647;DHT22;5880;52.342;9.662;2023-12-29T06:32:03;13.00;66.60
11647;DHT22;5880;52.342;9.662;2023-12-29T06:34:29;13.00;66.70
11647;DHT22;5880;52.342;9.662;2023-12-29T06:36:55;13.00;66.70
11647;DHT22;5880;52.342;9.662;2023-12-29T06:39:21;12.90;66.80
11647;DHT22;5880;52.342;9.662;2023-12-29T06:41:46;13.00;66.90
11647;DHT22;5880;52.342;9.662;2023-12-29T06:44:12;12.90;66.90
11647;DHT22;5880;52.342;9.662;2023-12-29T06:46:38;12.90;66.80
11647;DHT22;5880;52.342;9.662;2023-12-29T06:49:03;12.90;67.00
11647;DHT22;5880;52.342;9.662;2023-12-29T06:51:29;13.00;66.90
11647;DHT22;5880;52.342;9.662;2023-12-29T06:53:55;13.00;67.00
11647;DHT22;5880;52.342;9.662;2023-12-29T06:56:21;13.00;66.90
11647;DHT22;5880;52.342;9.662;2023-12-29T06:58:46;13.00;66.90
11647;DHT22;5880;52.342;9.662;2023-12-29T07:01:12;13.00;66.80
11647;DHT22;5880;52.342;9.662;2023-12-29T07:03:38;13.00;66.70
11647;DHT22;5880;52.342;9.662;2023-12-29T07:06:04;13.00;66.80
11647;DHT22;5880;52.342;9.662;2023-12-29T07:08:30;13.10;66.90
11647;DHT22;5880;52.342;9.662;2023-12-29T07:10:56;13.10;66.80
11647;DHT22;5880;52.342;9.662;2023-12-29T07:13:21;13.10;66.80
11647;DHT22;5880;52.342;9.662;2023-12-29T07:15:47;13.10;66.60
11647;DHT22;5880;52.342;9.662;2023-12-29T07:18:14;13.20;66.70
11647;DHT22;5880;52.342;9.662;2023-12-29T07:20:41;13.10;66.70
11647;DHT22;5880;52.342;9.662;2023-12-29T07:23:07;13.20;66.60
11647;DHT22;5880;52.342;9.662;2023-12-29T07:25:33;13.20;66.50
11647;DHT22;5880;52.342;9.662;2023-12-29T07:27:59;13.20;66.60
11647;DHT22;5880;52.342;9.662;2023-12-29T07:30:24;13.20;66.50
11647;DHT22;5880;52.342;9.662;2023-12-29T07:32:51;13.20;66.50
11647;DHT22;5880;52.342;9.662;2023-12-29T07:35:17;13.20;66.40
11647;DHT22;5880;52.342;9.662;2023-12-29T07:37:45;13.20;66.40
11647;DHT22;5880;52.342;9.662;2023-12-29T07:40:12;13.20;66.40
11647;DHT22;5880;52.342;9.662;2023-12-29T07:42:39;13.20;66.90
11647;DHT22;5880;52.342;9.662;2023-12-29T07:45:06;13.20;66.00
11647;DHT22;5880;52.342;9.662;2023-12-29T07:47:32;13.20;66.00
11647;DHT22;5880;52.342;9.662;2023-12-29T07:49:58;13.30;66.20
11647;DHT22;5880;52.342;9.662;2023-12-29T07:52:23;13.30;66.30
11647;DHT22;5880;52.342;9.662;2023-12-29T07:54:49;13.20;65.60
11647;DHT22;5880;52.342;9.662;2023-12-29T07:57:15;13.30;66.10
11647;DHT22;5880;52.342;9.662;2023-12-29T07:59:40;13.30;66.10
11647;DHT22;5880;52.342;9.662;2023-12-29T08:02:06;13.30;66.10
11647;DHT22;5880;52.342;9.662;2023-12-29T08:04:32;13.30;66.00
11647;DHT22;5880;52.342;9.662;2023-12-29T08:06:58;13.30;66.00
11647;DHT22;5880;52.342;9.662;2023-12-29T08:09:24;13.30;65.90
11647;DHT22;5880;52.342;9.662;2023-12-29T08:11:50;13.30;65.90
11647;DHT22;5880;52.342;9.662;2023-12-29T08:14:16;13.30;65.80
11647;DHT22;5880;52.342;9.662;2023-12-29T08:16:42;13.30;65.60
11647;DHT22;5880;52.342;9.662;2023-12-29T08:19:08;13.30;65.80
11647;DHT22;5880;52.342;9.662;2023-12-29T08:21:35;13.30;65.60
11647;DHT22;5880;52.342;9.662;2023-12-29T08:24:01;13.30;66.00
11647;DHT22;5880;52.342;9.662;2023-12-29T08:26:27;13.30;66.00
11647;DHT22;5880;52.342;9.662;2023-12-29T08:28:53;13.30;65.90
11647;DHT22;5880;52.342;9.662;2023-12-29T08:31:19;13.30;65.80
11647;DHT22;5880;52.342;9.662;2023-12-29T08:33:45;13.30;65.70
11647;DHT22;5880;52.342;9.662;2023-12-29T08:36:11;13.40;65.60
11647;DHT22;5880;52.342;9.662;2023-12-29T08:38:38;13.40;65.60
11647;DHT22;5880;52.342;9.662;2023-12-29T08:41:04;13.40;65.80
11647;DHT22;5880;52.342;9.662;2023-12-29T08:43:30;13.40;65.50
11647;DHT22;5880;52.342;9.662;2023-12-29T08:45:56;13.40;65.50
11647;DHT22;5880;52.342;9.662;2023-12-29T08:48:22;13.40;65.40
11647;DHT22;5880;52.342;9.662;2023-12-29T08:50:49;13.50;65.60
11647;DHT22;5880;52.342;9.662;2023-12-29T08:53:15;13.50;65.70
11647;DHT22;5880;52.342;9.662;2023-12-29T08:55:43;13.50;65.50
11647;DHT22;5880;52.342;9.662;2023-12-29T08:58:09;13.50;65.40
11647;DHT22;5880;52.342;9.662;2023-12-29T09:00:34;13.50;65.00
11647;DHT22;5880;52.342;9.662;2023-12-29T09:03:00;13.60;65.30
11647;DHT22;5880;52.342;9.662;2023-12-29T09:05:26;13.60;66.00
11647;DHT22;5880;52.342;9.662;2023-12-29T09:07:51;13.60;65.00
11647;DHT22;5880;52.342;9.662;2023-12-29T09:10:17;13.60;65.90
11647;DHT22;5880;52.342;9.662;2023-12-29T09:12:43;13.60;64.70
11647;DHT22;5880;52.342;9.662;2023-12-29T09:15:09;13.70;64.80
11647;DHT22;5880;52.342;9.662;2023-12-29T09:17:35;13.60;65.00
11647;DHT22;5880;52.342;9.662;2023-12-29T09:20:02;13.70;65.20
11647;DHT22;5880;52.342;9.662;2023-12-29T09:22:28;13.70;65.10
11647;DHT22;5880;52.342;9.662;2023-12-29T09:24:54;13.70;64.80
11647;DHT22;5880;52.342;9.662;2023-12-29T09:27:21;13.70;64.80
11647;DHT22;5880;52.342;9.662;2023-12-29T09:29:47;13.80;64.80
11647;DHT22;5880;52.342;9.662;2023-12-29T09:32:12;13.70;64.70
11647;DHT22;5880;52.342;9.662;2023-12-29T09:34:38;13.70;64.40
11647;DHT22;5880;52.342;9.662;2023-12-29T09:37:04;13.70;64.60
11647;DHT22;5880;52.342;9.662;2023-12-29T09:39:29;13.70;64.50
11647;DHT22;5880;52.342;9.662;2023-12-29T09:41:58;13.70;64.70
11647;DHT22;5880;52.342;9.662;2023-12-29T09:44:27;13.70;64.80
11647;DHT22;5880;52.342;9.662;2023-12-29T09:46:54;13.60;64.60
11647;DHT22;5880;52.342;9.662;2023-12-29T09:49:23;13.50;64.70
11647;DHT22;5880;52.342;9.662;2023-12-29T09:51:50;13.40;64.80
11647;DHT22;5880;52.342;9.662;2023-12-29T09:54:16;13.40;65.00
11647;DHT22;5880;52.342;9.662;2023-12-29T09:56:42;13.30;65.10
11647;DHT22;5880;52.342;9.662;2023-12-29T09:59:10;13.30;65.10
11647;DHT22;5880;52.342;9.662;2023-12-29T10:01:39;13.20;65.00
11647;DHT22;5880;52.342;9.662;2023-12-29T10:04:06;13.10;65.10
11647;DHT22;5880;52.342;9.662;2023-12-29T10:06:36;13.00;65.20
11647;DHT22;5880;52.342;9.662;2023-12-29T10:09:04;12.90;65.50
11647;DHT22;5880;52.342;9.662;2023-12-29T10:11:35;12.90;65.60
11647;DHT22;5880;52.342;9.662;2023-12-29T10:14:16;12.80;65.80
11647;DHT22;5880;52.342;9.662;2023-12-29T10:17:10;12.70;66.10
11647;DHT22;5880;52.342;9.662;2023-12-29T10:20:12;12.70;66.30
11647;DHT22;5880;52.342;9.662;2023-12-29T10:25:28;12.60;66.80
11647;DHT22;5880;52.342;9.662;2023-12-29T10:27:56;12.60;66.90
11647;DHT22;5880;52.342;9.662;2023-12-29T10:30:22;12.60;67.20
11647;DHT22;5880;52.342;9.662;2023-12-29T10:32:52;12.60;67.40
11647;DHT22;5880;52.342;9.662;2023-12-29T10:35:18;12.60;67.40
11647;DHT22;5880;52.342;9.662;2023-12-29T10:37:44;12.50;67.30
11647;DHT22;5880;52.342;9.662;2023-12-29T10:40:19;12.50;67.40
11647;DHT22;5880;52.342;9.662;2023-12-29T10:42:53;12.40;67.80
11647;DHT22;5880;52.342;9.662;2023-12-29T10:45:20;12.40;67.90
11647;DHT22;5880;52.342;9.662;2023-12-29T10:47:46;12.30;67.90
11647;DHT22;5880;52.342;9.662;2023-12-29T10:50:12;12.30;68.20
11647;DHT22;5880;52.342;9.662;2023-12-29T10:52:38;12.30;68.40
11647;DHT22;5880;52.342;9.662;2023-12-29T10:55:09;12.30;68.60
11647;DHT22;5880;52.342;9.662;2023-12-29T10:57:39;12.30;68.90
11647;DHT22;5880;52.342;9.662;2023-12-29T11:00:06;12.30;69.00
11647;DHT22;5880;52.342;9.662;2023-12-29T11:02:34;12.40;69.10
11647;DHT22;5880;52.342;9.662;2023-12-29T11:05:06;12.40;69.20
11647;DHT22;5880;52.342;9.662;2023-12-29T11:07:38;12.50;69.30
11647;DHT22;5880;52.342;9.662;2023-12-29T11:10:06;12.50;69.30
11647;DHT22;5880;52.342;9.662;2023-12-29T11:12:34;12.60;69.90
11647;DHT22;5880;52.342;9.662;2023-12-29T11:15:03;12.70;69.20
11647;DHT22;5880;52.342;9.662;2023-12-29T11:17:31;12.70;69.10
11647;DHT22;5880;52.342;9.662;2023-12-29T11:20:03;12.80;69.00
11647;DHT22;5880;52.342;9.662;2023-12-29T11:22:31;12.80;68.80
11647;DHT22;5880;52.342;9.662;2023-12-29T11:24:58;12.80;68.80
11647;DHT22;5880;52.342;9.662;2023-12-29T11:27:29;12.90;68.80
11647;DHT22;5880;52.342;9.662;2023-12-29T11:29:57;12.90;68.80
11647;DHT22;5880;52.342;9.662;2023-12-29T11:32:40;13.00;68.70
11647;DHT22;5880;52.342;9.662;2023-12-29T11:35:20;13.00;68.50
11647;DHT22;5880;52.342;9.662;2023-12-29T11:38:02;13.10;68.50
11647;DHT22;5880;52.342;9.662;2023-12-29T11:40:42;13.20;68.60
11647;DHT22;5880;52.342;9.662;2023-12-29T11:43:16;13.20;68.30
11647;DHT22;5880;52.342;9.662;2023-12-29T11:45:43;13.20;68.40
11647;DHT22;5880;52.342;9.662;2023-12-29T11:48:10;13.30;68.40
11647;DHT22;5880;52.342;9.662;2023-12-29T11:50:37;13.30;68.30
11647;DHT22;5880;52.342;9.662;2023-12-29T11:53:06;13.30;68.00
11647;DHT22;5880;52.342;9.662;2023-12-29T11:55:38;13.40;68.00
11647;DHT22;5880;52.342;9.662;2023-12-29T11:58:23;13.40;67.90
11647;DHT22;5880;52.342;9.662;2023-12-29T12:00:51;13.40;67.50
11647;DHT22;5880;52.342;9.662;2023-12-29T12:03:28;13.40;67.50
11647;DHT22;5880;52.342;9.662;2023-12-29T12:05:57;13.50;67.80
11647;DHT22;5880;52.342;9.662;2023-12-29T12:08:34;13.50;67.90
11647;DHT22;5880;52.342;9.662;2023-12-29T12:13:59;13.60;67.10
11647;DHT22;5880;52.342;9.662;2023-12-29T12:16:47;13.60;67.70
11647;DHT22;5880;52.342;9.662;2023-12-29T12:19:15;13.60;66.80
11647;DHT22;5880;52.342;9.662;2023-12-29T12:21:46;13.60;67.80
11647;DHT22;5880;52.342;9.662;2023-12-29T12:24:18;13.60;67.50
11647;DHT22;5880;52.342;9.662;2023-12-29T12:26:45;13.60;67.50
11647;DHT22;5880;52.342;9.662;2023-12-29T12:29:13;13.70;67.80
11647;DHT22;5880;52.342;9.662;2023-12-29T12:31:57;13.60;67.50
11647;DHT22;5880;52.342;9.662;2023-12-29T12:34:23;13.70;67.50
11647;DHT22;5880;52.342;9.662;2023-12-29T12:36:53;13.70;67.50
11647;DHT22;5880;52.342;9.662;2023-12-29T12:39:21;13.70;67.40
11647;DHT22;5880;52.342;9.662;2023-12-29T12:41:48;13.60;67.30
11647;DHT22;5880;52.342;9.662;2023-12-29T12:44:15;13.60;67.50
11647;DHT22;5880;52.342;9.662;2023-12-29T12:49:13;13.60;67.30
11647;DHT22;5880;52.342;9.662;2023-12-29T12:51:40;13.60;67.60
11647;DHT22;5880;52.342;9.662;2023-12-29T12:54:06;13.50;67.70
11647;DHT22;5880;52.342;9.662;2023-12-29T12:56:33;13.50;67.80
11647;DHT22;5880;52.342;9.662;2023-12-29T12:59:02;13.50;67.90
11647;DHT22;5880;52.342;9.662;2023-12-29T13:01:28;13.50;68.50
11647;DHT22;5880;52.342;9.662;2023-12-29T13:03:59;13.50;67.80
11647;DHT22;5880;52.342;9.662;2023-12-29T13:06:25;13.50;67.60
11647;DHT22;5880;52.342;9.662;2023-12-29T13:08:51;13.40;67.60
11647;DHT22;5880;52.342;9.662;2023-12-29T13:11:21;13.50;67.70
11647;DHT22;5880;52.342;9.662;2023-12-29T13:13:53;13.50;67.80
11647;DHT22;5880;52.342;9.662;2023-12-29T13:16:30;13.50;68.00
11647;DHT22;5880;52.342;9.662;2023-12-29T13:21:46;13.50;67.40
11647;DHT22;5880;52.342;9.662;2023-12-29T13:24:13;13.50;67.60
11647;DHT22;5880;52.342;9.662;2023-12-29T13:26:41;13.50;67.80
11647;DHT22;5880;52.342;9.662;2023-12-29T13:29:08;13.60;67.70
11647;DHT22;5880;52.342;9.662;2023-12-29T13:31:34;13.60;67.80
11647;DHT22;5880;52.342;9.662;2023-12-29T13:34:05;13.60;67.70
11647;DHT22;5880;52.342;9.662;2023-12-29T13:36:50;13.60;67.40
11647;DHT22;5880;52.342;9.662;2023-12-29T13:39:52;13.70;67.70
11647;DHT22;5880;52.342;9.662;2023-12-29T13:42:27;13.70;66.50
11647;DHT22;5880;52.342;9.662;2023-12-29T13:44:57;13.70;67.00
11647;DHT22;5880;52.342;9.662;2023-12-29T13:47:24;13.70;66.60
11647;DHT22;5880;52.342;9.662;2023-12-29T13:49:51;13.60;66.80
11647;DHT22;5880;52.342;9.662;2023-12-29T13:52:17;13.60;66.80
11647;DHT22;5880;52.342;9.662;2023-12-29T13:54:44;13.60;66.70
11647;DHT22;5880;52.342;9.662;2023-12-29T13:57:10;13.60;66.60
11647;DHT22;5880;52.342;9.662;2023-12-29T13:59:36;13.60;66.50
11647;DHT22;5880;52.342;9.662;2023-12-29T14:02:26;13.60;66.60
11647;DHT22;5880;52.342;9.662;2023-12-29T14:05:14;13.50;66.10
11647;DHT22;5880;52.342;9.662;2023-12-29T14:07:52;13.50;65.70
11647;DHT22;5880;52.342;9.662;2023-12-29T14:10:20;13.40;66.20
11647;DHT22;5880;52.342;9.662;2023-12-29T14:12:46;13.40;66.50
11647;DHT22;5880;52.342;9.662;2023-12-29T14:15:12;13.40;66.50
11647;DHT22;5880;52.342;9.662;2023-12-29T14:17:39;13.40;66.40
11647;DHT22;5880;52.342;9.662;2023-12-29T14:20:08;13.30;66.50
11647;DHT22;5880;52.342;9.662;2023-12-29T14:22:34;13.30;66.20
11647;DHT22;5880;52.342;9.662;2023-12-29T14:25:05;13.30;66.40
11647;DHT22;5880;52.342;9.662;2023-12-29T14:27:33;13.40;66.20
11647;DHT22;5880;52.342;9.662;2023-12-29T14:29:58;13.30;66.40
11647;DHT22;5880;52.342;9.662;2023-12-29T14:32:24;13.30;66.50
11647;DHT22;5880;52.342;9.662;2023-12-29T14:34:50;13.30;66.30
11647;DHT22;5880;52.342;9.662;2023-12-29T14:37:19;13.30;66.20
11647;DHT22;5880;52.342;9.662;2023-12-29T14:39:51;13.30;66.50
11647;DHT22;5880;52.342;9.662;2023-12-29T14:42:17;13.30;65.90
11647;DHT22;5880;52.342;9.662;2023-12-29T14:44:47;13.30;66.40
11647;DHT22;5880;52.342;9.662;2023-12-29T14:47:15;13.30;66.30
11647;DHT22;5880;52.342;9.662;2023-12-29T14:49:41;13.30;66.30
11647;DHT22;5880;52.342;9.662;2023-12-29T14:52:08;13.30;66.50
11647;DHT22;5880;52.342;9.662;2023-12-29T14:54:33;13.30;66.40
11647;DHT22;5880;52.342;9.662;2023-12-29T14:56:59;13.20;66.20
11647;DHT22;5880;52.342;9.662;2023-12-29T14:59:25;13.20;66.30
11647;DHT22;5880;52.342;9.662;2023-12-29T15:01:50;13.20;66.30
11647;DHT22;5880;52.342;9.662;2023-12-29T15:04:16;13.20;66.20
11647;DHT22;5880;52.342;9.662;2023-12-29T15:06:42;13.20;66.40
11647;DHT22;5880;52.342;9.662;2023-12-29T15:09:07;13.20;66.10
11647;DHT22;5880;52.342;9.662;2023-12-29T15:11:36;13.20;66.40
11647;DHT22;5880;52.342;9.662;2023-12-29T15:14:02;13.20;66.30
11647;DHT22;5880;52.342;9.662;2023-12-29T15:16:28;13.20;66.50
11647;DHT22;5880;52.342;9.662;2023-12-29T15:18:53;13.10;66.60
11647;DHT22;5880;52.342;9.662;2023-12-29T15:21:19;13.10;66.70
11647;DHT22;5880;52.342;9.662;2023-12-29T15:23:44;13.10;66.70
11647;DHT22;5880;52.342;9.662;2023-12-29T15:26:11;13.10;66.60
11647;DHT22;5880;52.342;9.662;2023-12-29T15:28:40;13.20;66.60
11647;DHT22;5880;52.342;9.662;2023-12-29T15:31:07;13.10;66.70
11647;DHT22;5880;52.342;9.662;2023-12-29T15:33:32;13.10;66.50
11647;DHT22;5880;52.342;9.662;2023-12-29T15:35:58;13.10;66.70
11647;DHT22;5880;52.342;9.662;2023-12-29T15:38:24;13.10;66.70
11647;DHT22;5880;52.342;9.662;2023-12-29T15:40:49;13.10;66.70
11647;DHT22;5880;52.342;9.662;2023-12-29T15:43:15;12.90;66.60
11647;DHT22;5880;52.342;9.662;2023-12-29T15:45:40;13.20;66.80
11647;DHT22;5880;52.342;9.662;2023-12-29T15:48:06;13.10;66.80
11647;DHT22;5880;52.342;9.662;2023-12-29T15:50:32;13.20;66.70
11647;DHT22;5880;52.342;9.662;2023-12-29T15:52:58;13.10;66.60
11647;DHT22;5880;52.342;9.662;2023-12-29T15:55:23;13.20;66.60
11647;DHT22;5880;52.342;9.662;2023-12-29T15:57:49;13.20;66.50